sensor_id;sensor_type;location;lat;lon;timestamp;pressure;altitude;pressure_sealevel;temperature;humidity
78407;BME280;67692;51.074;-1.790;2023-08-07T00:01:33;101575.97;;;15.05;78.78
78407;BME280;67692;51.074;-1.790;2023-08-07T00:04:00;101578.19;;;14.99;79.50
78407;BME280;67692;51.074;-1.790;2023-08-07T00:06:26;101576.41;;;14.99;79.03
78407;BME280;67692;51.074;-1.790;2023-08-07T00:08:53;101580.19;;;14.95;78.73
78407;BME280;67692;51.074;-1.790;2023-08-07T00:11:22;101569.53;;;14.98;79.13
78407;BME280;67692;51.074;-1.790;2023-08-07T00:13:48;101574.28;;;15.04;79.12
78407;BME280;67692;51.074;-1.790;2023-08-07T00:16:15;101563.66;;;15.07;78.42
78407;BME280;67692;51.074;-1.790;2023-08-07T00:18:42;101566.56;;;15.03;78.27
78407;BME280;67692;51.074;-1.790;2023-08-07T00:21:09;101573.38;;;15.05;78.84
78407;BME280;67692;51.074;-1.790;2023-08-07T00:23:35;101577.84;;;15.03;78.94
78407;BME280;67692;51.074;-1.790;2023-08-07T00:26:02;101558.88;;;15.01;78.75
78407;BME280;67692;51.074;-1.790;2023-08-07T00:28:30;101565.16;;;14.99;78.87
78407;BME280;67692;51.074;-1.790;2023-08-07T00:30:56;101565.38;;;14.96;78.73
78407;BME280;67692;51.074;-1.790;2023-08-07T00:33:23;101566.44;;;14.93;79.13
78407;BME280;67692;51.074;-1.790;2023-08-07T00:35:49;101565.72;;;14.91;79.07
78407;BME280;67692;51.074;-1.790;2023-08-07T00:38:16;101561.22;;;14.93;79.06
78407;BME280;67692;51.074;-1.790;2023-08-07T00:40:42;101558.63;;;14.93;78.92
78407;BME280;67692;51.074;-1.790;2023-08-07T00:43:09;101563.00;;;14.93;78.84
78407;BME280;67692;51.074;-1.790;2023-08-07T00:45:41;101551.44;;;14.84;78.28
78407;BME280;67692;51.074;-1.790;2023-08-07T00:48:09;101550.25;;;14.77;78.66
78407;BME280;67692;51.074;-1.790;2023-08-07T00:50:36;101551.09;;;14.77;79.05
78407;BME280;67692;51.074;-1.790;2023-08-07T00:53:04;101546.91;;;14.75;79.29
78407;BME280;67692;51.074;-1.790;2023-08-07T00:55:31;101549.50;;;14.75;78.85
78407;BME280;67692;51.074;-1.790;2023-08-07T00:57:58;101543.81;;;14.70;79.09
78407;BME280;67692;51.074;-1.790;2023-08-07T01:00:25;101549.00;;;14.70;79.41
78407;BME280;67692;51.074;-1.790;2023-08-07T01:02:54;101546.53;;;14.68;79.43
78407;BME280;67692;51.074;-1.790;2023-08-07T01:05:20;101546.53;;;14.68;78.86
78407;BME280;67692;51.074;-1.790;2023-08-07T01:07:47;101541.84;;;14.61;79.13
78407;BME280;67692;51.074;-1.790;2023-08-07T01:10:17;101534.03;;;14.61;79.10
78407;BME280;67692;51.074;-1.790;2023-08-07T01:12:50;101537.09;;;14.54;79.52
78407;BME280;67692;51.074;-1.790;2023-08-07T01:15:23;101543.03;;;14.56;79.50
78407;BME280;67692;51.074;-1.790;2023-08-07T01:17:53;101534.25;;;14.57;78.64
78407;BME280;67692;51.074;-1.790;2023-08-07T01:20:20;101535.91;;;14.58;78.69
78407;BME280;67692;51.074;-1.790;2023-08-07T01:22:48;101545.13;;;14.51;78.95
78407;BME280;67692;51.074;-1.790;2023-08-07T01:25:15;101534.72;;;14.51;79.26
78407;BME280;67692;51.074;-1.790;2023-08-07T01:27:48;101534.81;;;14.50;79.50
78407;BME280;67692;51.074;-1.790;2023-08-07T01:30:20;101535.78;;;14.49;78.93
78407;BME280;67692;51.074;-1.790;2023-08-07T01:32:58;101547.41;;;14.43;79.16
78407;BME280;67692;51.074;-1.790;2023-08-07T01:35:29;101542.31;;;14.42;78.95
78407;BME280;67692;51.074;-1.790;2023-08-07T01:37:58;101538.88;;;14.41;79.45
78407;BME280;67692;51.074;-1.790;2023-08-07T01:40:27;101539.09;;;14.38;79.26
78407;BME280;67692;51.074;-1.790;2023-08-07T01:42:54;101535.88;;;14.35;79.84
78407;BME280;67692;51.074;-1.790;2023-08-07T01:45:24;101536.00;;;14.33;79.33
78407;BME280;67692;51.074;-1.790;2023-08-07T01:47:50;101537.03;;;14.30;79.21
78407;BME280;67692;51.074;-1.790;2023-08-07T01:50:18;101542.66;;;14.37;79.23
78407;BME280;67692;51.074;-1.790;2023-08-07T01:52:44;101537.38;;;14.26;78.88
78407;BME280;67692;51.074;-1.790;2023-08-07T01:55:13;101546.63;;;14.30;79.70
78407;BME280;67692;51.074;-1.790;2023-08-07T01:57:39;101540.78;;;14.26;79.18
78407;BME280;67692;51.074;-1.790;2023-08-07T02:00:07;101547.28;;;14.21;79.30
78407;BME280;67692;51.074;-1.790;2023-08-07T02:02:34;101539.69;;;14.18;79.46
78407;BME280;67692;51.074;-1.790;2023-08-07T02:05:01;101544.91;;;14.18;79.51
78407;BME280;67692;51.074;-1.790;2023-08-07T02:07:28;101533.94;;;14.13;79.15
78407;BME280;67692;51.074;-1.790;2023-08-07T02:09:54;101541.16;;;14.09;79.21
78407;BME280;67692;51.074;-1.790;2023-08-07T02:12:22;101540.81;;;14.14;79.86
78407;BME280;67692;51.074;-1.790;2023-08-07T02:14:49;101532.50;;;14.09;79.75
78407;BME280;67692;51.074;-1.790;2023-08-07T02:17:16;101543.53;;;14.12;79.32
78407;BME280;67692;51.074;-1.790;2023-08-07T02:19:43;101537.38;;;14.13;79.49
78407;BME280;67692;51.074;-1.790;2023-08-07T02:22:09;101536.28;;;14.05;79.58
78407;BME280;67692;51.074;-1.790;2023-08-07T02:24:36;101537.94;;;14.06;79.65
78407;BME280;67692;51.074;-1.790;2023-08-07T02:27:03;101550.25;;;14.04;79.96
78407;BME280;67692;51.074;-1.790;2023-08-07T02:29:31;101546.47;;;14.08;79.58
78407;BME280;67692;51.074;-1.790;2023-08-07T02:31:59;101546.38;;;14.09;80.05
78407;BME280;67692;51.074;-1.790;2023-08-07T02:34:26;101540.44;;;14.07;80.01
78407;BME280;67692;51.074;-1.790;2023-08-07T02:36:52;101551.97;;;14.03;79.42
78407;BME280;67692;51.074;-1.790;2023-08-07T02:39:19;101543.66;;;13.98;79.41
78407;BME280;67692;51.074;-1.790;2023-08-07T02:41:45;101550.88;;;13.94;79.46
78407;BME280;67692;51.074;-1.790;2023-08-07T02:44:12;101550.38;;;13.89;79.13
78407;BME280;67692;51.074;-1.790;2023-08-07T02:46:40;101549.22;;;13.81;79.48
78407;BME280;67692;51.074;-1.790;2023-08-07T02:49:06;101554.00;;;13.87;79.65
78407;BME280;67692;51.074;-1.790;2023-08-07T02:51:33;101553.81;;;13.77;79.44
78407;BME280;67692;51.074;-1.790;2023-08-07T02:54:00;101547.44;;;13.81;80.16
78407;BME280;67692;51.074;-1.790;2023-08-07T02:56:26;101549.53;;;13.76;79.88
78407;BME280;67692;51.074;-1.790;2023-08-07T02:58:53;101549.66;;;13.75;79.75
78407;BME280;67692;51.074;-1.790;2023-08-07T03:01:20;101547.13;;;13.73;79.26
78407;BME280;67692;51.074;-1.790;2023-08-07T03:03:48;101539.53;;;13.70;79.34
78407;BME280;67692;51.074;-1.790;2023-08-07T03:06:14;101536.81;;;13.59;79.23
78407;BME280;67692;51.074;-1.790;2023-08-07T03:08:41;101546.09;;;13.63;79.65
78407;BME280;67692;51.074;-1.790;2023-08-07T03:11:08;101552.75;;;13.67;79.79
78407;BME280;67692;51.074;-1.790;2023-08-07T03:13:34;101550.16;;;13.67;79.77
78407;BME280;67692;51.074;-1.790;2023-08-07T03:16:02;101547.56;;;13.67;79.55
78407;BME280;67692;51.074;-1.790;2023-08-07T03:18:30;101550.16;;;13.67;79.33
78407;BME280;67692;51.074;-1.790;2023-08-07T03:20:59;101552.88;;;13.65;79.37
78407;BME280;67692;51.074;-1.790;2023-08-07T03:23:27;101549.44;;;13.65;79.10
78407;BME280;67692;51.074;-1.790;2023-08-07T03:26:02;101544.31;;;13.51;79.41
78407;BME280;67692;51.074;-1.790;2023-08-07T03:28:28;101548.38;;;13.55;80.04
78407;BME280;67692;51.074;-1.790;2023-08-07T03:30:55;101548.16;;;13.58;79.78
78407;BME280;67692;51.074;-1.790;2023-08-07T03:33:22;101547.34;;;13.57;79.85
78407;BME280;67692;51.074;-1.790;2023-08-07T03:35:48;101538.59;;;13.58;79.56
78407;BME280;67692;51.074;-1.790;2023-08-07T03:38:16;101535.16;;;13.58;80.08
78407;BME280;67692;51.074;-1.790;2023-08-07T03:40:43;101532.38;;;13.61;79.94
78407;BME280;67692;51.074;-1.790;2023-08-07T03:43:10;101535.69;;;13.63;79.59
78407;BME280;67692;51.074;-1.790;2023-08-07T03:45:36;101536.22;;;13.68;79.76
78407;BME280;67692;51.074;-1.790;2023-08-07T03:48:03;101535.88;;;13.73;79.57
78407;BME280;67692;51.074;-1.790;2023-08-07T03:50:30;101539.03;;;13.78;80.13
78407;BME280;67692;51.074;-1.790;2023-08-07T03:53:00;101536.09;;;13.82;80.47
78407;BME280;67692;51.074;-1.790;2023-08-07T03:55:28;101526.28;;;13.86;80.18
78407;BME280;67692;51.074;-1.790;2023-08-07T03:57:55;101531.91;;;13.92;80.62
78407;BME280;67692;51.074;-1.790;2023-08-07T04:00:21;101540.66;;;13.91;80.33
78407;BME280;67692;51.074;-1.790;2023-08-07T04:02:48;101533.38;;;13.96;80.50
78407;BME280;67692;51.074;-1.790;2023-08-07T04:05:14;101533.38;;;13.96;80.56
78407;BME280;67692;51.074;-1.790;2023-08-07T04:07:41;101526.81;;;14.04;80.43
78407;BME280;67692;51.074;-1.790;2023-08-07T04:10:08;101533.81;;;13.90;81.01
78407;BME280;67692;51.074;-1.790;2023-08-07T04:12:36;101536.91;;;13.95;80.85
78407;BME280;67692;51.074;-1.790;2023-08-07T04:15:04;101534.81;;;14.00;80.77
78407;BME280;67692;51.074;-1.790;2023-08-07T04:17:31;101541.50;;;14.05;80.97
78407;BME280;67692;51.074;-1.790;2023-08-07T04:19:58;101536.06;;;14.08;81.01
78407;BME280;67692;51.074;-1.790;2023-08-07T04:22:25;101530.84;;;14.08;81.35
78407;BME280;67692;51.074;-1.790;2023-08-07T04:24:51;101549.81;;;14.10;81.25
78407;BME280;67692;51.074;-1.790;2023-08-07T04:27:18;101534.06;;;14.11;81.71
78407;BME280;67692;51.074;-1.790;2023-08-07T04:29:46;101532.78;;;14.17;81.42
78407;BME280;67692;51.074;-1.790;2023-08-07T04:32:12;101530.97;;;14.06;81.14
78407;BME280;67692;51.074;-1.790;2023-08-07T04:34:39;101534.19;;;14.10;81.27
78407;BME280;67692;51.074;-1.790;2023-08-07T04:37:06;101524.16;;;14.16;81.41
78407;BME280;67692;51.074;-1.790;2023-08-07T04:39:33;101528.53;;;14.16;81.04
78407;BME280;67692;51.074;-1.790;2023-08-07T04:42:01;101528.22;;;14.20;81.71
78407;BME280;67692;51.074;-1.790;2023-08-07T04:44:27;101534.88;;;14.24;80.76
78407;BME280;67692;51.074;-1.790;2023-08-07T04:46:55;101532.72;;;14.18;80.65
78407;BME280;67692;51.074;-1.790;2023-08-07T04:49:22;101530.00;;;14.20;80.68
78407;BME280;67692;51.074;-1.790;2023-08-07T04:51:48;101540.94;;;14.12;80.77
78407;BME280;67692;51.074;-1.790;2023-08-07T04:54:15;101545.88;;;14.04;81.39
78407;BME280;67692;51.074;-1.790;2023-08-07T04:56:41;101551.69;;;14.08;81.34
78407;BME280;67692;51.074;-1.790;2023-08-07T04:59:09;101553.13;;;14.12;81.78
78407;BME280;67692;51.074;-1.790;2023-08-07T05:01:36;101547.81;;;14.13;81.12
78407;BME280;67692;51.074;-1.790;2023-08-07T05:04:05;101549.16;;;14.19;81.22
78407;BME280;67692;51.074;-1.790;2023-08-07T05:06:32;101547.28;;;14.21;81.14
78407;BME280;67692;51.074;-1.790;2023-08-07T05:08:58;101548.34;;;14.18;80.82
78407;BME280;67692;51.074;-1.790;2023-08-07T05:11:25;101552.72;;;14.18;80.77
78407;BME280;67692;51.074;-1.790;2023-08-07T05:13:52;101549.59;;;14.13;81.61
78407;BME280;67692;51.074;-1.790;2023-08-07T05:16:18;101558.66;;;14.20;80.87
78407;BME280;67692;51.074;-1.790;2023-08-07T05:18:45;101565.22;;;14.13;80.97
78407;BME280;67692;51.074;-1.790;2023-08-07T05:21:13;101561.06;;;14.10;81.33
78407;BME280;67692;51.074;-1.790;2023-08-07T05:23:40;101557.16;;;14.16;81.29
78407;BME280;67692;51.074;-1.790;2023-08-07T05:26:06;101558.00;;;14.16;81.26
78407;BME280;67692;51.074;-1.790;2023-08-07T05:28:33;101552.06;;;14.14;81.01
78407;BME280;67692;51.074;-1.790;2023-08-07T05:30:59;101556.44;;;14.14;80.96
78407;BME280;67692;51.074;-1.790;2023-08-07T05:33:26;101558.75;;;14.18;80.80
78407;BME280;67692;51.074;-1.790;2023-08-07T05:35:53;101563.03;;;14.19;80.79
78407;BME280;67692;51.074;-1.790;2023-08-07T05:38:22;101564.03;;;14.17;80.71
78407;BME280;67692;51.074;-1.790;2023-08-07T05:40:48;101560.31;;;14.21;80.40
78407;BME280;67692;51.074;-1.790;2023-08-07T05:43:16;101569.19;;;14.18;80.90
78407;BME280;67692;51.074;-1.790;2023-08-07T05:45:43;101575.09;;;14.20;81.14
78407;BME280;67692;51.074;-1.790;2023-08-07T05:48:11;101576.66;;;14.23;80.64
78407;BME280;67692;51.074;-1.790;2023-08-07T05:50:38;101571.22;;;14.26;80.96
78407;BME280;67692;51.074;-1.790;2023-08-07T05:53:05;101574.56;;;14.28;80.98
78407;BME280;67692;51.074;-1.790;2023-08-07T05:55:33;101569.13;;;14.31;81.09
78407;BME280;67692;51.074;-1.790;2023-08-07T05:57:59;101563.72;;;14.34;81.18
78407;BME280;67692;51.074;-1.790;2023-08-07T06:00:26;101566.00;;;14.39;80.96
78407;BME280;67692;51.074;-1.790;2023-08-07T06:02:53;101566.81;;;14.39;80.55
78407;BME280;67692;51.074;-1.790;2023-08-07T06:05:20;101560.16;;;14.35;80.46
78407;BME280;67692;51.074;-1.790;2023-08-07T06:07:46;101563.59;;;14.36;80.38
78407;BME280;67692;51.074;-1.790;2023-08-07T06:10:13;101563.00;;;14.32;80.20
78407;BME280;67692;51.074;-1.790;2023-08-07T06:12:41;101562.78;;;14.35;80.44
78407;BME280;67692;51.074;-1.790;2023-08-07T06:15:08;101572.47;;;14.33;80.40
78407;BME280;67692;51.074;-1.790;2023-08-07T06:17:35;101578.28;;;14.37;80.48
78407;BME280;67692;51.074;-1.790;2023-08-07T06:20:02;101573.81;;;14.39;80.54
78407;BME280;67692;51.074;-1.790;2023-08-07T06:22:30;101568.59;;;14.39;80.29
78407;BME280;67692;51.074;-1.790;2023-08-07T06:24:58;101561.84;;;14.36;80.34
78407;BME280;67692;51.074;-1.790;2023-08-07T06:27:24;101557.22;;;14.40;80.77
78407;BME280;67692;51.074;-1.790;2023-08-07T06:29:52;101564.00;;;14.42;81.14
78407;BME280;67692;51.074;-1.790;2023-08-07T06:32:19;101565.75;;;14.42;80.99
78407;BME280;67692;51.074;-1.790;2023-08-07T06:34:45;101571.53;;;14.47;81.10
78407;BME280;67692;51.074;-1.790;2023-08-07T06:37:12;101565.97;;;14.51;80.56
78407;BME280;67692;51.074;-1.790;2023-08-07T06:39:39;101569.09;;;14.56;80.46
78407;BME280;67692;51.074;-1.790;2023-08-07T06:42:06;101570.13;;;14.54;80.20
78407;BME280;67692;51.074;-1.790;2023-08-07T06:44:33;101567.97;;;14.48;80.23
78407;BME280;67692;51.074;-1.790;2023-08-07T06:47:01;101568.81;;;14.48;81.04
78407;BME280;67692;51.074;-1.790;2023-08-07T06:49:27;101571.63;;;14.45;80.85
78407;BME280;67692;51.074;-1.790;2023-08-07T06:51:56;101575.16;;;14.44;81.04
78407;BME280;67692;51.074;-1.790;2023-08-07T06:54:23;101571.31;;;14.37;81.40
78407;BME280;67692;51.074;-1.790;2023-08-07T06:56:50;101576.94;;;14.31;81.33
78407;BME280;67692;51.074;-1.790;2023-08-07T06:59:16;101581.25;;;14.32;81.36
78407;BME280;67692;51.074;-1.790;2023-08-07T07:01:43;101580.06;;;14.36;81.57
78407;BME280;67692;51.074;-1.790;2023-08-07T07:04:11;101570.38;;;14.38;81.68
78407;BME280;67692;51.074;-1.790;2023-08-07T07:06:37;101570.78;;;14.45;81.31
78407;BME280;67692;51.074;-1.790;2023-08-07T07:09:04;101565.38;;;14.48;81.14
78407;BME280;67692;51.074;-1.790;2023-08-07T07:11:31;101572.03;;;14.52;81.11
78407;BME280;67692;51.074;-1.790;2023-08-07T07:13:57;101567.41;;;14.55;81.32
78407;BME280;67692;51.074;-1.790;2023-08-07T07:16:24;101565.41;;;14.59;80.90
78407;BME280;67692;51.074;-1.790;2023-08-07T07:18:51;101574.81;;;14.62;81.29
78407;BME280;67692;51.074;-1.790;2023-08-07T07:21:19;101577.09;;;14.66;81.07
78407;BME280;67692;51.074;-1.790;2023-08-07T07:23:45;101586.22;;;14.72;80.85
78407;BME280;67692;51.074;-1.790;2023-08-07T07:26:12;101580.06;;;14.73;81.46
78407;BME280;67692;51.074;-1.790;2023-08-07T07:28:39;101584.88;;;14.79;80.75
78407;BME280;67692;51.074;-1.790;2023-08-07T07:31:05;101580.13;;;14.84;81.03
78407;BME280;67692;51.074;-1.790;2023-08-07T07:33:36;101581.56;;;14.88;80.97
78407;BME280;67692;51.074;-1.790;2023-08-07T07:36:04;101589.19;;;14.91;81.23
78407;BME280;67692;51.074;-1.790;2023-08-07T07:38:33;101575.41;;;14.89;80.16
78407;BME280;67692;51.074;-1.790;2023-08-07T07:40:59;101597.72;;;14.93;80.42
78407;BME280;67692;51.074;-1.790;2023-08-07T07:43:26;101601.66;;;14.99;80.77
78407;BME280;67692;51.074;-1.790;2023-08-07T07:45:53;101599.88;;;14.99;80.65
78407;BME280;67692;51.074;-1.790;2023-08-07T07:48:19;101603.09;;;15.03;80.51
78407;BME280;67692;51.074;-1.790;2023-08-07T07:50:46;101605.38;;;15.07;80.64
78407;BME280;67692;51.074;-1.790;2023-08-07T07:53:13;101601.84;;;15.08;80.91
78407;BME280;67692;51.074;-1.790;2023-08-07T07:55:40;101609.31;;;15.13;79.44
78407;BME280;67692;51.074;-1.790;2023-08-07T07:58:07;101603.75;;;15.17;80.02
78407;BME280;67692;51.074;-1.790;2023-08-07T08:00:34;101608.66;;;15.22;79.69
78407;BME280;67692;51.074;-1.790;2023-08-07T08:03:00;101606.53;;;15.27;79.88
78407;BME280;67692;51.074;-1.790;2023-08-07T08:05:27;101604.31;;;15.34;79.14
78407;BME280;67692;51.074;-1.790;2023-08-07T08:07:54;101612.84;;;15.36;79.01
78407;BME280;67692;51.074;-1.790;2023-08-07T08:10:21;101611.66;;;15.40;78.95
78407;BME280;67692;51.074;-1.790;2023-08-07T08:12:49;101611.44;;;15.43;78.59
78407;BME280;67692;51.074;-1.790;2023-08-07T08:15:15;101619.78;;;15.48;79.39
78407;BME280;67692;51.074;-1.790;2023-08-07T08:17:42;101627.25;;;15.53;78.96
78407;BME280;67692;51.074;-1.790;2023-08-07T08:20:09;101618.13;;;15.58;79.15
78407;BME280;67692;51.074;-1.790;2023-08-07T08:22:36;101615.28;;;15.61;78.36
78407;BME280;67692;51.074;-1.790;2023-08-07T08:25:03;101617.81;;;15.63;76.55
78407;BME280;67692;51.074;-1.790;2023-08-07T08:27:31;101620.06;;;15.67;77.67
78407;BME280;67692;51.074;-1.790;2023-08-07T08:29:59;101610.09;;;15.72;78.07
78407;BME280;67692;51.074;-1.790;2023-08-07T08:32:26;101604.88;;;15.72;76.37
78407;BME280;67692;51.074;-1.790;2023-08-07T08:34:52;101607.25;;;15.75;77.16
78407;BME280;67692;51.074;-1.790;2023-08-07T08:37:19;101615.09;;;15.87;74.83
78407;BME280;67692;51.074;-1.790;2023-08-07T08:39:46;101612.25;;;15.90;73.98
78407;BME280;67692;51.074;-1.790;2023-08-07T08:42:12;101609.91;;;15.98;73.66
78407;BME280;67692;51.074;-1.790;2023-08-07T08:44:39;101602.66;;;16.01;67.93
78407;BME280;67692;51.074;-1.790;2023-08-07T08:47:08;101608.34;;;16.18;67.08
78407;BME280;67692;51.074;-1.790;2023-08-07T08:49:37;101609.78;;;16.22;67.23
78407;BME280;67692;51.074;-1.790;2023-08-07T08:52:09;101611.09;;;16.27;69.14
78407;BME280;67692;51.074;-1.790;2023-08-07T08:54:36;101600.13;;;16.33;67.75
78407;BME280;67692;51.074;-1.790;2023-08-07T08:57:04;101597.53;;;16.33;66.50
78407;BME280;67692;51.074;-1.790;2023-08-07T08:59:31;101598.97;;;16.38;66.76
78407;BME280;67692;51.074;-1.790;2023-08-07T09:01:59;101601.78;;;16.46;66.28
78407;BME280;67692;51.074;-1.790;2023-08-07T09:04:27;101597.50;;;16.56;65.48
78407;BME280;67692;51.074;-1.790;2023-08-07T09:06:54;101596.16;;;16.61;66.20
78407;BME280;67692;51.074;-1.790;2023-08-07T09:09:21;101604.28;;;16.70;65.50
78407;BME280;67692;51.074;-1.790;2023-08-07T09:11:50;101602.00;;;16.65;65.36
78407;BME280;67692;51.074;-1.790;2023-08-07T09:14:20;101603.66;;;16.66;62.80
78407;BME280;67692;51.074;-1.790;2023-08-07T09:16:49;101595.94;;;16.64;62.54
78407;BME280;67692;51.074;-1.790;2023-08-07T09:19:16;101590.25;;;16.71;63.44
78407;BME280;67692;51.074;-1.790;2023-08-07T09:21:44;101589.75;;;16.77;60.83
78407;BME280;67692;51.074;-1.790;2023-08-07T09:24:10;101588.75;;;16.89;61.69
78407;BME280;67692;51.074;-1.790;2023-08-07T09:26:39;101579.13;;;16.89;58.61
78407;BME280;67692;51.074;-1.790;2023-08-07T09:29:08;101585.88;;;16.92;59.87
78407;BME280;67692;51.074;-1.790;2023-08-07T09:31:36;101589.09;;;16.95;59.83
78407;BME280;67692;51.074;-1.790;2023-08-07T09:34:03;101591.34;;;17.00;59.44
78407;BME280;67692;51.074;-1.790;2023-08-07T09:36:30;101594.16;;;17.08;60.86
78407;BME280;67692;51.074;-1.790;2023-08-07T09:39:02;101590.47;;;17.11;58.98
78407;BME280;67692;51.074;-1.790;2023-08-07T09:41:28;101594.03;;;17.10;58.19
78407;BME280;67692;51.074;-1.790;2023-08-07T09:43:55;101584.16;;;17.13;58.92
78407;BME280;67692;51.074;-1.790;2023-08-07T09:46:22;101589.00;;;17.18;59.69
78407;BME280;67692;51.074;-1.790;2023-08-07T09:48:48;101577.50;;;17.30;58.85
78407;BME280;67692;51.074;-1.790;2023-08-07T09:51:15;101571.50;;;17.39;56.77
78407;BME280;67692;51.074;-1.790;2023-08-07T09:53:42;101572.38;;;17.49;57.88
78407;BME280;67692;51.074;-1.790;2023-08-07T09:56:11;101578.78;;;17.57;55.42
78407;BME280;67692;51.074;-1.790;2023-08-07T09:58:46;101562.91;;;17.69;55.88
78407;BME280;67692;51.074;-1.790;2023-08-07T10:01:15;101561.66;;;17.73;55.98
78407;BME280;67692;51.074;-1.790;2023-08-07T10:03:43;101558.84;;;17.86;57.14
78407;BME280;67692;51.074;-1.790;2023-08-07T10:06:10;101559.09;;;17.83;57.39
78407;BME280;67692;51.074;-1.790;2023-08-07T10:08:38;101558.53;;;17.79;57.53
78407;BME280;67692;51.074;-1.790;2023-08-07T10:11:07;101561.81;;;17.72;57.11
78407;BME280;67692;51.074;-1.790;2023-08-07T10:13:36;101553.72;;;17.64;56.45
78407;BME280;67692;51.074;-1.790;2023-08-07T10:16:03;101560.88;;;17.62;58.49
78407;BME280;67692;51.074;-1.790;2023-08-07T10:18:30;101556.81;;;17.69;57.13
78407;BME280;67692;51.074;-1.790;2023-08-07T10:20:57;101539.78;;;17.84;56.61
78407;BME280;67692;51.074;-1.790;2023-08-07T10:23:27;101544.13;;;18.04;58.48
78407;BME280;67692;51.074;-1.790;2023-08-07T10:25:55;101542.09;;;18.18;56.59
78407;BME280;67692;51.074;-1.790;2023-08-07T10:28:24;101544.75;;;18.37;56.43
78407;BME280;67692;51.074;-1.790;2023-08-07T10:30:53;101546.59;;;18.56;56.04
78407;BME280;67692;51.074;-1.790;2023-08-07T10:33:21;101543.31;;;18.63;53.55
78407;BME280;67692;51.074;-1.790;2023-08-07T10:35:52;101545.69;;;18.66;53.09
78407;BME280;67692;51.074;-1.790;2023-08-07T10:38:20;101546.63;;;18.65;54.88
78407;BME280;67692;51.074;-1.790;2023-08-07T10:41:01;101542.38;;;18.74;56.37
78407;BME280;67692;51.074;-1.790;2023-08-07T10:43:28;101545.00;;;18.84;56.29
78407;BME280;67692;51.074;-1.790;2023-08-07T10:46:03;101551.34;;;18.91;57.33
78407;BME280;67692;51.074;-1.790;2023-08-07T10:48:37;101555.22;;;18.96;55.65
78407;BME280;67692;51.074;-1.790;2023-08-07T10:51:04;101550.09;;;19.05;55.81
78407;BME280;67692;51.074;-1.790;2023-08-07T10:53:32;101543.31;;;19.02;56.96
78407;BME280;67692;51.074;-1.790;2023-08-07T10:56:02;101551.47;;;18.99;55.74
78407;BME280;67692;51.074;-1.790;2023-08-07T10:58:30;101543.75;;;18.88;54.83
78407;BME280;67692;51.074;-1.790;2023-08-07T11:01:20;101536.69;;;18.79;56.50
78407;BME280;67692;51.074;-1.790;2023-08-07T11:03:51;101532.16;;;18.81;59.36
78407;BME280;67692;51.074;-1.790;2023-08-07T11:06:21;101533.66;;;18.83;58.14
78407;BME280;67692;51.074;-1.790;2023-08-07T11:08:49;101532.84;;;18.83;57.02
78407;BME280;67692;51.074;-1.790;2023-08-07T11:11:16;101529.94;;;18.86;56.93
78407;BME280;67692;51.074;-1.790;2023-08-07T11:13:43;101521.91;;;18.87;57.18
78407;BME280;67692;51.074;-1.790;2023-08-07T11:16:09;101517.75;;;18.94;57.94
78407;BME280;67692;51.074;-1.790;2023-08-07T11:18:37;101520.66;;;19.01;57.54
78407;BME280;67692;51.074;-1.790;2023-08-07T11:21:06;101512.66;;;18.93;54.28
78407;BME280;67692;51.074;-1.790;2023-08-07T11:23:33;101520.94;;;18.98;55.03
78407;BME280;67692;51.074;-1.790;2023-08-07T11:26:01;101508.50;;;19.00;55.72
78407;BME280;67692;51.074;-1.790;2023-08-07T11:28:28;101513.19;;;19.06;56.32
78407;BME280;67692;51.074;-1.790;2023-08-07T11:30:56;101516.25;;;19.11;56.06
78407;BME280;67692;51.074;-1.790;2023-08-07T11:33:23;101508.22;;;19.13;54.84
78407;BME280;67692;51.074;-1.790;2023-08-07T11:35:51;101504.78;;;19.12;52.65
78407;BME280;67692;51.074;-1.790;2023-08-07T11:38:29;101502.38;;;19.19;55.15
78407;BME280;67692;51.074;-1.790;2023-08-07T11:40:57;101500.31;;;19.22;56.13
78407;BME280;67692;51.074;-1.790;2023-08-07T11:43:24;101497.41;;;19.25;56.42
78407;BME280;67692;51.074;-1.790;2023-08-07T11:45:53;101500.44;;;19.30;53.34
78407;BME280;67692;51.074;-1.790;2023-08-07T11:48:19;101494.06;;;19.23;52.55
78407;BME280;67692;51.074;-1.790;2023-08-07T11:50:47;101481.06;;;19.31;51.04
78407;BME280;67692;51.074;-1.790;2023-08-07T11:53:15;101476.91;;;19.39;51.29
78407;BME280;67692;51.074;-1.790;2023-08-07T11:55:47;101472.72;;;19.46;53.06
78407;BME280;67692;51.074;-1.790;2023-08-07T11:58:13;101474.09;;;19.59;54.97
78407;BME280;67692;51.074;-1.790;2023-08-07T12:00:43;101482.03;;;19.77;53.87
78407;BME280;67692;51.074;-1.790;2023-08-07T12:03:23;101471.00;;;19.91;54.74
78407;BME280;67692;51.074;-1.790;2023-08-07T12:05:50;101472.47;;;20.04;53.69
78407;BME280;67692;51.074;-1.790;2023-08-07T12:08:18;101465.50;;;20.12;52.80
78407;BME280;67692;51.074;-1.790;2023-08-07T12:10:49;101475.63;;;20.25;53.80
78407;BME280;67692;51.074;-1.790;2023-08-07T12:13:15;101462.06;;;20.30;52.17
78407;BME280;67692;51.074;-1.790;2023-08-07T12:15:42;101461.75;;;20.33;52.46
78407;BME280;67692;51.074;-1.790;2023-08-07T12:18:09;101458.97;;;20.34;53.92
78407;BME280;67692;51.074;-1.790;2023-08-07T12:20:37;101454.00;;;20.31;54.40
78407;BME280;67692;51.074;-1.790;2023-08-07T12:23:03;101445.97;;;20.33;54.14
78407;BME280;67692;51.074;-1.790;2023-08-07T12:25:31;101455.75;;;20.40;53.77
78407;BME280;67692;51.074;-1.790;2023-08-07T12:27:58;101459.09;;;20.42;54.03
78407;BME280;67692;51.074;-1.790;2023-08-07T12:30:25;101463.88;;;20.47;53.61
78407;BME280;67692;51.074;-1.790;2023-08-07T12:32:51;101462.75;;;20.49;55.14
78407;BME280;67692;51.074;-1.790;2023-08-07T12:35:18;101451.75;;;20.54;53.78
78407;BME280;67692;51.074;-1.790;2023-08-07T12:37:44;101451.91;;;20.53;53.79
78407;BME280;67692;51.074;-1.790;2023-08-07T12:40:11;101461.63;;;20.52;55.05
78407;BME280;67692;51.074;-1.790;2023-08-07T12:42:39;101459.44;;;20.47;54.97